Time;durP1;ratioP1;P1;durP2;ratioP2;P2;SDS_P1;SDS_P2;PMS_P1;PMS_P2;Temp;Humidity;BMP_temperature;BMP_pressure;BME280_temperature;BME280_humidity;BME280_pressure;Samples;Min_cycle;Max_cycle;Signal;HPM_P1;HPM_P2
2021/03/09 00:01:28;;;;;;;403.07;130.93;;;;;;;-1.42;61.97;101406.64;5152789;56;1145199;-77
2021/03/09 00:06:34;;;;;;;393.30;129.10;;;;;;;-1.47;61.96;101407.14;5151805;56;1145411;-77
2021/03/09 00:11:40;;;;;;;397.27;130.23;;;;;;;-1.50;62.10;101408.47;5153326;56;1145105;-77
2021/03/09 00:16:45;;;;;;;426.50;147.00;;;;;;;-1.52;62.17;101405.03;5134119;56;1145435;-76
2021/03/09 00:21:51;;;;;;;399.67;135.33;;;;;;;-1.53;62.26;101404.65;5119292;56;1145399;-76
2021/03/09 00:26:57;;;;;;;362.80;120.17;;;;;;;-1.58;62.25;101407.73;5119280;56;1145214;-77
2021/03/09 00:32:03;;;;;;;358.60;122.07;;;;;;;-1.68;62.17;101403.09;5142414;56;1145250;-77
2021/03/09 00:37:08;;;;;;;367.40;118.13;;;;;;;-1.77;62.28;101405.81;5125018;56;1145168;-76
2021/03/09 00:42:14;;;;;;;366.93;116.03;;;;;;;-1.89;61.97;101402.09;5134435;56;1145499;-76
2021/03/09 00:47:19;;;;;;;363.23;113.47;;;;;;;-2.10;61.97;101412.70;5122157;56;1145389;-76
2021/03/09 00:52:25;;;;;;;353.37;117.73;;;;;;;-2.20;62.85;101418.44;5120353;56;1144670;-78
2021/03/09 00:57:31;;;;;;;360.20;118.33;;;;;;;-2.10;63.39;101410.97;5141013;56;1145084;-76
2021/03/09 01:02:36;;;;;;;359.73;115.50;;;;;;;-1.99;63.59;101411.72;5161309;56;1144759;-78
2021/03/09 01:07:42;;;;;;;322.23;106.27;;;;;;;-2.08;62.69;101410.95;5161218;56;1144853;-77
2021/03/09 01:12:48;;;;;;;372.07;125.77;;;;;;;-2.20;62.79;101406.34;5161165;56;1144798;-76
2021/03/09 01:17:54;;;;;;;368.90;115.75;;;;;;;-2.16;63.45;101407.17;5160571;56;1144707;-76
2021/03/09 01:22:59;;;;;;;426.13;139.17;;;;;;;-2.09;63.42;101405.34;5160000;56;1144736;-76
2021/03/09 01:28:06;;;;;;;386.33;119.40;;;;;;;-2.07;63.32;101398.42;5160377;56;1149445;-77
2021/03/09 01:33:12;;;;;;;297.12;100.07;;;;;;;-2.03;63.37;101393.19;5160042;56;1144990;-77
2021/03/09 01:38:18;;;;;;;251.45;82.02;;;;;;;-2.03;63.28;101387.14;5160231;56;1144994;-77
2021/03/09 01:43:24;;;;;;;228.73;76.63;;;;;;;-2.08;63.11;101378.12;5159909;56;1142726;-75
2021/03/09 01:48:33;;;;;;;236.03;77.50;;;;;;;-2.08;63.38;101375.97;5160104;56;1142919;-76
2021/03/09 01:53:39;;;;;;;227.87;74.00;;;;;;;-2.08;63.54;101371.64;5160022;56;1142741;-76
2021/03/09 01:58:52;;;;;;;241.90;73.53;;;;;;;-2.06;63.37;101369.89;5150544;56;1143029;-76
2021/03/09 02:03:58;;;;;;;232.10;73.67;;;;;;;-2.16;63.02;101373.05;5160160;56;1143340;-77
2021/03/09 02:09:04;;;;;;;239.47;74.00;;;;;;;-2.15;63.43;101372.61;5160371;56;1143464;-76
2021/03/09 02:14:39;;;;;;;231.55;76.15;;;;;;;-2.16;63.51;101373.05;5160150;56;1143239;-77
2021/03/09 02:20:06;;;;;;;215.53;71.83;;;;;;;-2.26;63.02;101372.71;5160520;56;1142667;-77
2021/03/09 02:25:28;;;;;;;209.80;70.25;;;;;;;-2.29;63.42;101371.44;5161391;56;1142639;-78
2021/03/09 02:30:42;;;;;;;244.63;74.27;;;;;;;-2.28;63.65;101373.16;5160944;56;1143040;-75
2021/03/09 02:35:58;;;;;;;225.30;74.30;;;;;;;-2.49;62.68;101370.83;5161135;56;1142481;-77
2021/03/09 02:41:06;;;;;;;208.87;70.13;;;;;;;-2.75;62.92;101374.12;5161211;56;1143169;-79
2021/03/09 02:46:14;;;;;;;213.93;71.03;;;;;;;-2.72;63.80;101376.22;5161428;56;1143070;-76
2021/03/09 02:51:26;;;;;;;178.10;63.20;;;;;;;-2.59;64.23;101372.63;5161257;56;1143281;-77
2021/03/09 02:56:33;;;;;;;178.87;62.40;;;;;;;-2.59;64.16;101370.05;5160932;56;1142612;-77
2021/03/09 03:01:43;;;;;;;191.33;58.93;;;;;;;-2.58;64.33;101367.02;5160819;56;1142670;-77
2021/03/09 03:06:51;;;;;;;161.40;49.38;;;;;;;-2.67;64.43;101360.65;5160609;56;1142772;-76
2021/03/09 03:11:57;;;;;;;167.95;54.23;;;;;;;-2.69;64.70;101358.08;5160805;56;1142727;-76
2021/03/09 03:17:06;;;;;;;157.45;50.55;;;;;;;-2.78;64.93;101356.02;5176587;56;1142747;-77
2021/03/09 03:22:12;;;;;;;163.60;45.63;;;;;;;-2.80;65.16;101352.59;5114527;56;1143030;-76
2021/03/09 03:27:20;;;;;;;148.37;45.20;;;;;;;-2.77;65.49;101359.03;5160975;56;1142856;-76
2021/03/09 03:32:25;;;;;;;128.45;40.52;;;;;;;-2.75;65.73;101351.65;5160864;56;1143096;-79
2021/03/09 03:37:32;;;;;;;119.20;38.07;;;;;;;-2.75;65.63;101354.70;5161126;56;1142734;-76
2021/03/09 03:42:40;;;;;;;100.93;29.93;;;;;;;-2.67;65.87;101352.45;5161069;56;1142700;-79
2021/03/09 03:47:46;;;;;;;69.57;24.07;;;;;;;-2.63;66.05;101355.44;5138302;56;1142985;-79
2021/03/09 03:53:02;;;;;;;76.67;25.73;;;;;;;-2.78;66.08;101349.11;5134914;56;1141417;-78
2021/03/09 03:58:24;;;;;;;87.07;25.27;;;;;;;-2.80;66.98;101353.88;5142616;56;1140475;-80
2021/03/09 04:03:32;;;;;;;76.47;25.00;;;;;;;-2.83;67.06;101347.00;5152981;56;1140809;-80
2021/03/09 04:08:41;;;;;;;103.47;30.27;;;;;;;-2.82;66.97;101349.15;5157812;56;1140408;-77
2021/03/09 04:13:47;;;;;;;93.77;28.17;;;;;;;-2.78;67.23;101334.87;5142732;56;1142989;-77
2021/03/09 04:18:55;;;;;;;89.83;28.03;;;;;;;-2.75;66.84;101331.41;5134963;56;1140564;-77
2021/03/09 04:24:02;;;;;;;84.17;27.87;;;;;;;-2.81;67.01;101333.61;5143443;56;1140549;-77
2021/03/09 04:29:11;;;;;;;103.13;33.47;;;;;;;-2.74;67.30;101329.20;5134681;56;1140546;-77
2021/03/09 04:34:17;;;;;;;128.30;41.58;;;;;;;-2.68;66.92;101334.34;5154985;56;1142729;-76
2021/03/09 04:39:23;;;;;;;120.30;40.40;;;;;;;-2.92;65.82;101339.33;5159727;56;1142547;-77
2021/03/09 04:44:29;;;;;;;129.37;41.77;;;;;;;-3.12;66.06;101331.73;5159560;56;1143359;-77
2021/03/09 04:49:37;;;;;;;162.10;55.40;;;;;;;-3.03;66.92;101325.17;5159884;56;1142599;-80
2021/03/09 04:54:42;;;;;;;184.67;59.53;;;;;;;-2.96;66.99;101325.98;5160029;56;1142774;-81
2021/03/09 04:59:48;;;;;;;170.17;53.90;;;;;;;-2.94;67.09;101325.11;5159756;56;1142644;-79
2021/03/09 05:04:54;;;;;;;164.17;55.03;;;;;;;-2.88;66.74;101328.91;5159876;56;1142553;-78
2021/03/09 05:09:59;;;;;;;177.13;58.37;;;;;;;-2.81;66.91;101333.61;5159223;56;1142752;-79
2021/03/09 05:15:06;;;;;;;159.83;52.87;;;;;;;-2.80;66.77;101328.85;5179833;56;1142760;-81
2021/03/09 05:20:14;;;;;;;167.05;49.83;;;;;;;-2.86;66.67;101330.20;5160014;56;1143003;-81
2021/03/09 05:25:19;;;;;;;112.65;38.58;;;;;;;-2.85;66.55;101337.09;5160329;56;1142866;-81
2021/03/09 05:30:26;;;;;;;122.85;39.23;;;;;;;-2.92;66.78;101335.02;5161652;56;1142843;-80
2021/03/09 05:35:32;;;;;;;142.17;37.47;;;;;;;-2.86;67.12;101327.61;5161307;56;1143126;-78
2021/03/09 05:40:37;;;;;;;144.00;41.77;;;;;;;-2.82;67.27;101330.59;5161657;56;1142590;-77
2021/03/09 05:45:43;;;;;;;117.60;38.57;;;;;;;-2.75;67.14;101330.11;5161674;56;1142703;-77
2021/03/09 05:50:49;;;;;;;121.10;36.43;;;;;;;-2.72;67.12;101329.62;5161826;56;1142593;-80
2021/03/09 05:55:54;;;;;;;95.90;34.23;;;;;;;-2.68;66.94;101326.56;5161574;56;1143130;-78
2021/03/09 06:01:01;;;;;;;96.40;32.00;;;;;;;-2.65;67.08;101327.84;5161659;56;1140713;-81
2021/03/09 06:06:07;;;;;;;106.00;32.10;;;;;;;-2.57;67.29;101341.55;5163100;56;1140999;-80
2021/03/09 06:11:18;;;;;;;102.78;31.15;;;;;;;-2.52;67.36;101337.19;5145386;56;1142801;-78
2021/03/09 06:16:23;;;;;;;96.92;29.45;;;;;;;-2.37;67.63;101339.60;5161435;56;1142620;-80
2021/03/09 06:21:29;;;;;;;93.47;27.52;;;;;;;-2.17;68.09;101336.78;5161517;56;1140628;-79
2021/03/09 06:26:40;;;;;;;86.07;27.67;;;;;;;-1.99;68.26;101342.17;5161460;56;1140874;-77
2021/03/09 06:31:59;;;;;;;82.73;25.77;;;;;;;-1.75;68.60;101348.31;5161459;56;1140462;-80
2021/03/09 06:37:23;;;;;;;57.30;22.42;;;;;;;-1.59;68.61;101351.11;5160841;56;1140662;-78
2021/03/09 06:42:36;;;;;;;74.50;26.37;;;;;;;-1.51;68.15;101352.28;5160398;56;1140467;-79
2021/03/09 06:47:51;;;;;;;89.07;38.77;;;;;;;-1.29;69.38;101354.98;5160630;56;1140721;-80
2021/03/09 06:53:03;;;;;;;130.20;49.03;;;;;;;-1.08;69.73;101358.55;5160692;56;1140606;-80
2021/03/09 06:58:13;;;;;;;294.90;105.67;;;;;;;-0.77;69.99;101358.02;5160776;56;1143265;-79
2021/03/09 07:03:37;;;;;;;366.90;139.47;;;;;;;-0.50;70.31;101359.25;5160977;56;1145218;-78
2021/03/09 07:08:42;;;;;;;112.43;43.73;;;;;;;-0.27;70.23;101357.05;5160758;56;1145229;-81
2021/03/09 07:13:49;;;;;;;76.90;27.43;;;;;;;-0.01;70.51;101363.05;5160464;56;1142975;-82
2021/03/09 07:18:55;;;;;;;60.53;23.80;;;;;;;0.30;70.62;101363.26;5160725;56;1140680;-79
2021/03/09 07:24:04;;;;;;;55.47;21.00;;;;;;;0.56;70.06;101361.36;5160653;56;1138672;-81
2021/03/09 07:29:14;;;;;;;59.00;21.17;;;;;;;0.70;69.89;101363.20;5160170;56;1138976;-79
2021/03/09 07:34:20;;;;;;;52.60;21.23;;;;;;;0.95;69.89;101364.31;5159270;56;1138612;-80
2021/03/09 07:39:26;;;;;;;52.03;20.13;;;;;;;1.12;69.68;101358.68;5159915;56;1138426;-81
2021/03/09 07:44:32;;;;;;;52.93;22.53;;;;;;;1.36;69.65;101359.37;5159067;56;1138530;-79
2021/03/09 07:49:40;;;;;;;39.60;16.13;;;;;;;1.65;69.45;101362.95;5159477;56;1138968;-79
2021/03/09 07:55:04;;;;;;;40.47;16.17;;;;;;;1.85;67.72;101355.84;5159285;56;1139136;-79
2021/03/09 08:00:15;;;;;;;41.02;15.13;;;;;;;2.03;67.29;101355.33;5115568;56;1139114;-79
2021/03/09 08:05:29;;;;;;;35.43;16.57;;;;;;;2.15;66.70;101351.50;5141679;56;1138973;-79
2021/03/09 08:10:40;;;;;;;27.43;12.63;;;;;;;2.32;65.63;101347.48;5115131;56;1138893;-79
2021/03/09 08:15:45;;;;;;;31.93;10.63;;;;;;;2.54;66.54;101344.23;5149364;56;1139087;-78
2021/03/09 08:20:57;;;;;;;26.15;11.85;;;;;;;2.73;64.18;101327.08;5159230;56;1138861;-81
2021/03/09 08:26:15;;;;;;;33.87;11.50;;;;;;;2.82;63.29;101326.32;5159580;56;1138906;-82
2021/03/09 08:31:31;;;;;;;26.65;11.05;;;;;;;2.83;62.01;101327.17;5160308;56;1138834;-79
2021/03/09 08:36:36;;;;;;;25.80;11.00;;;;;;;2.74;61.03;101319.20;5158693;56;1139036;-80
2021/03/09 08:41:46;;;;;;;29.00;10.77;;;;;;;2.86;62.50;101314.02;5160582;56;1138916;-79
2021/03/09 08:47:11;;;;;;;29.60;14.03;;;;;;;3.12;61.86;101310.52;5160555;56;1139371;-79
2021/03/09 08:52:24;;;;;;;22.37;10.40;;;;;;;3.26;61.00;101313.96;5160835;56;1139065;-79
2021/03/09 08:57:30;;;;;;;29.67;10.70;;;;;;;3.31;59.99;101316.83;5160991;56;1138474;-80
2021/03/09 09:02:42;;;;;;;32.83;11.90;;;;;;;3.32;60.22;101308.53;5160942;56;1138509;-80
2021/03/09 09:07:49;;;;;;;26.73;14.03;;;;;;;3.30;60.73;101311.65;5160375;56;1138582;-79
2021/03/09 09:12:57;;;;;;;35.10;12.90;;;;;;;3.40;58.07;101287.73;5161035;56;1138732;-79
2021/03/09 09:18:06;;;;;;;33.90;13.70;;;;;;;3.40;58.07;101287.73;5161245;56;1138554;-80
2021/03/09 09:23:18;;;;;;;25.20;12.43;;;;;;;3.46;58.23;101290.14;5161415;56;1138599;-79
2021/03/09 09:28:36;;;;;;;32.78;14.58;;;;;;;3.58;58.37;101291.45;5161522;56;1138885;-78
2021/03/09 09:33:43;;;;;;;31.60;13.33;;;;;;;3.63;58.46;101282.14;5158938;56;1138594;-78
2021/03/09 09:38:54;;;;;;;27.83;13.40;;;;;;;3.78;58.94;101279.81;5160995;56;1138540;-80
2021/03/09 09:44:00;;;;;;;26.50;11.07;;;;;;;3.94;58.01;101284.02;5160976;56;1138666;-79
2021/03/09 09:49:06;;;;;;;21.55;8.93;;;;;;;4.04;55.83;101284.50;5161152;56;1138610;-79
2021/03/09 09:54:14;;;;;;;18.50;8.10;;;;;;;4.09;54.49;101281.27;5161530;56;1136552;-80
2021/03/09 09:59:30;;;;;;;32.05;10.00;;;;;;;4.06;54.58;101286.61;5161379;56;1137012;-79
2021/03/09 10:04:36;;;;;;;12.37;6.57;;;;;;;4.16;55.29;101283.56;5160957;56;1138384;-77
2021/03/09 10:09:43;;;;;;;19.27;9.57;;;;;;;4.35;54.83;101285.47;5147602;56;1136525;-80
2021/03/09 10:14:54;;;;;;;17.23;8.20;;;;;;;4.41;53.16;101281.31;5160483;56;1136446;-79
2021/03/09 10:20:00;;;;;;;10.77;5.00;;;;;;;4.55;52.49;101284.22;5160578;56;1136439;-80
2021/03/09 10:25:11;;;;;;;16.07;7.23;;;;;;;4.66;51.81;101283.32;5141906;56;1136331;-79
2021/03/09 10:30:18;;;;;;;23.55;7.90;;;;;;;4.65;51.33;101272.90;5129338;56;1136557;-77
2021/03/09 10:35:23;;;;;;;18.15;8.08;;;;;;;4.51;50.46;101274.77;5149610;56;1137252;-78
2021/03/09 10:40:35;;;;;;;19.00;8.77;;;;;;;4.52;50.98;101272.55;5084055;56;1137114;-80
2021/03/09 10:45:42;;;;;;;25.50;8.60;;;;;;;4.36;50.04;101274.08;5072590;57;1137309;-77
2021/03/09 10:50:47;;;;;;;20.10;8.63;;;;;;;4.30;49.43;101270.38;5072453;57;1137230;-79
2021/03/09 10:55:53;;;;;;;23.53;10.07;;;;;;;4.33;50.81;101267.20;5072653;56;1136359;-81
2021/03/09 11:00:58;;;;;;;20.00;9.23;;;;;;;4.48;50.91;101260.03;5072016;57;1138670;-77
2021/03/09 11:06:04;;;;;;;14.60;6.87;;;;;;;4.55;50.55;101256.72;5108647;56;1136464;-79
2021/03/09 11:11:10;;;;;;;20.30;8.83;;;;;;;4.67;47.27;101253.59;5148759;56;1136524;-79
2021/03/09 11:16:15;;;;;;;18.23;9.30;;;;;;;4.70;49.83;101253.47;5159341;56;1136616;-78
2021/03/09 11:21:20;;;;;;;19.10;8.80;;;;;;;4.87;49.76;101254.92;5158525;56;1136836;-79
2021/03/09 11:26:29;;;;;;;22.27;10.23;;;;;;;4.96;48.38;101245.81;4981383;58;1136655;-78
2021/03/09 11:31:35;;;;;;;16.85;7.62;;;;;;;4.94;48.03;101243.25;5159382;56;1139190;-83
2021/03/09 11:36:40;;;;;;;17.85;8.00;;;;;;;4.83;48.18;101230.22;4981891;58;1136762;-80
2021/03/09 11:41:49;;;;;;;22.23;9.10;;;;;;;4.90;49.43;101229.02;5130496;56;1136799;-79
2021/03/09 11:46:55;;;;;;;33.13;17.07;;;;;;;5.00;49.19;101220.32;5064146;57;1136680;-78
2021/03/09 11:52:01;;;;;;;32.83;14.85;;;;;;;5.01;47.98;101220.25;5064139;57;1138348;-83
2021/03/09 11:57:06;;;;;;;16.40;7.67;;;;;;;4.89;48.40;101208.51;5064461;56;1138523;-81
2021/03/09 12:02:13;;;;;;;23.95;9.38;;;;;;;4.92;47.04;101199.20;5079009;57;1136378;-80
2021/03/09 12:07:20;;;;;;;16.50;8.53;;;;;;;5.02;46.67;101195.75;5048641;57;1136499;-79
2021/03/09 12:12:25;;;;;;;17.00;7.53;;;;;;;5.13;45.91;101196.12;5106004;56;1136830;-79
2021/03/09 12:17:31;;;;;;;17.42;8.28;;;;;;;4.88;44.86;101191.56;5161207;56;1136371;-79
2021/03/09 12:22:37;;;;;;;10.80;5.97;;;;;;;4.88;44.86;101191.56;5161666;56;1136546;-79
2021/03/09 12:27:43;;;;;;;13.90;6.47;;;;;;;4.73;45.83;101189.15;5161542;56;1136293;-77
2021/03/09 12:32:48;;;;;;;16.97;7.50;;;;;;;4.66;46.09;101184.22;5136971;56;1136899;-82
2021/03/09 12:37:54;;;;;;;20.03;8.83;;;;;;;4.54;45.88;101169.42;5153443;56;1136461;-78
2021/03/09 12:42:59;;;;;;;24.30;7.73;;;;;;;4.54;45.88;101169.42;5159747;56;1136420;-82
2021/03/09 12:48:06;;;;;;;16.40;8.33;;;;;;;4.55;46.50;101157.18;5159419;56;1136339;-82
2021/03/09 12:53:12;;;;;;;15.10;8.47;;;;;;;4.70;46.53;101143.42;5159359;56;1136265;-81
2021/03/09 12:58:18;;;;;;;27.07;11.77;;;;;;;4.97;46.99;101137.88;5159873;56;1136571;-79
2021/03/09 13:03:23;;;;;;;21.52;9.00;;;;;;;5.16;43.70;101130.90;5158959;56;1138997;-78
2021/03/09 13:08:30;;;;;;;16.30;6.45;;;;;;;5.04;42.15;101130.97;5117914;56;1136805;-80
2021/03/09 13:13:37;;;;;;;26.27;16.10;;;;;;;4.87;42.41;101126.96;5159523;56;1136724;-77
2021/03/09 13:18:43;;;;;;;25.50;14.10;;;;;;;5.00;42.54;101133.36;5159375;56;1138696;-80
2021/03/09 13:23:51;;;;;;;16.47;9.90;;;;;;;5.21;42.70;101126.27;5143072;56;1138997;-81
2021/03/09 13:28:56;;;;;;;15.87;7.00;;;;;;;5.31;42.87;101130.20;5158463;56;1136483;-81
2021/03/09 13:34:03;;;;;;;15.07;7.97;;;;;;;5.44;43.18;101118.20;5159649;56;1136950;-77
2021/03/09 13:39:09;;;;;;;20.13;8.53;;;;;;;5.47;41.52;101109.34;5153628;56;1136489;-78
2021/03/09 13:44:15;;;;;;;21.07;8.90;;;;;;;5.54;42.19;101110.28;5164269;56;1136583;-78
2021/03/09 13:49:21;;;;;;;30.02;14.63;;;;;;;5.59;42.62;101104.37;5160696;56;1136356;-77
2021/03/09 13:54:27;;;;;;;26.45;13.68;;;;;;;5.76;41.89;101098.77;5160704;56;1138548;-77
2021/03/09 13:59:33;;;;;;;16.12;7.80;;;;;;;5.70;40.58;101093.34;5160878;56;1138677;-78
2021/03/09 14:04:39;;;;;;;24.53;12.30;;;;;;;5.73;42.50;101087.95;5161383;56;1136786;-80
2021/03/09 14:09:44;;;;;;;39.93;14.67;;;;;;;5.89;42.76;101088.09;5151564;56;1138660;-77
2021/03/09 14:14:50;;;;;;;107.17;56.20;;;;;;;5.97;41.35;101089.41;5160902;56;1138936;-77
2021/03/09 14:19:56;;;;;;;23.73;15.50;;;;;;;6.02;41.04;101090.95;5160713;56;1141196;-79
2021/03/09 14:25:01;;;;;;;33.03;13.10;;;;;;;6.04;38.82;101089.96;5161363;56;1138921;-79
2021/03/09 14:30:11;;;;;;;27.80;12.47;;;;;;;5.98;39.69;101085.00;5159347;56;1139154;-80
2021/03/09 14:35:18;;;;;;;35.10;12.87;;;;;;;5.96;40.80;101085.08;5161844;56;1139091;-79
2021/03/09 14:40:28;;;;;;;45.85;14.50;;;;;;;5.97;39.98;101091.17;5161721;56;1138940;-78
2021/03/09 14:45:33;;;;;;;21.68;11.60;;;;;;;5.98;40.54;101082.38;5161606;56;1139339;-79
2021/03/09 14:50:39;;;;;;;33.73;16.33;;;;;;;6.07;39.76;101066.64;5161384;56;1138365;-80
2021/03/09 14:55:44;;;;;;;29.90;13.63;;;;;;;6.07;39.79;101058.30;5161482;56;1138330;-78
2021/03/09 15:00:50;;;;;;;37.70;14.27;;;;;;;6.06;39.92;101056.61;5161274;56;1138810;-77
2021/03/09 15:05:55;;;;;;;27.67;12.87;;;;;;;6.04;39.73;101046.64;5160390;56;1139186;-80
2021/03/09 15:11:01;;;;;;;41.10;18.13;;;;;;;6.00;38.63;101041.99;5160870;56;1138544;-79
2021/03/09 15:16:08;;;;;;;41.07;18.03;;;;;;;5.92;39.55;101044.63;5160742;56;1138555;-78
2021/03/09 15:21:13;;;;;;;29.97;15.00;;;;;;;5.92;39.76;101048.11;5160696;56;1138650;-77
2021/03/09 15:26:19;;;;;;;34.63;17.33;;;;;;;5.87;38.91;101051.84;5161306;56;1138606;-76
2021/03/09 15:31:25;;;;;;;40.40;17.57;;;;;;;5.81;39.02;101045.11;5161330;56;1138855;-78
2021/03/09 15:36:30;;;;;;;35.13;13.93;;;;;;;5.65;38.63;101051.58;5161271;56;1145403;-78
2021/03/09 15:41:39;;;;;;;187.57;93.17;;;;;;;5.53;38.74;101053.95;5159799;56;1138460;-77
2021/03/09 15:46:44;;;;;;;133.60;67.07;;;;;;;5.38;40.55;101050.75;5159747;56;1140534;-78
2021/03/09 15:51:50;;;;;;;114.00;53.37;;;;;;;5.22;40.45;101056.72;5159928;56;1140425;-79
2021/03/09 15:56:56;;;;;;;54.17;21.57;;;;;;;5.09;41.56;101054.73;5159832;56;1140714;-76
2021/03/09 16:02:02;;;;;;;59.77;26.17;;;;;;;5.16;41.49;101050.47;5159088;56;1138412;-78
2021/03/09 16:07:07;;;;;;;176.63;56.30;;;;;;;5.91;41.35;101046.41;5159718;56;1138417;-77
2021/03/09 16:12:13;;;;;;;81.33;29.17;;;;;;;6.63;41.20;101049.27;5160046;56;1140640;-76
2021/03/09 16:17:19;;;;;;;109.47;45.30;;;;;;;7.10;40.33;101048.50;5160180;56;1143790;-77
2021/03/09 16:22:27;;;;;;;212.78;72.32;;;;;;;7.37;40.78;101049.59;5158812;56;1140440;-77
2021/03/09 16:27:37;;;;;;;220.00;72.72;;;;;;;7.06;40.70;101055.70;5159112;56;1140509;-80
2021/03/09 16:32:41;;;;;;;134.03;42.20;;;;;;;6.47;41.19;101054.48;5159149;56;1141019;-80
2021/03/09 16:37:52;;;;;;;300.40;91.40;;;;;;;5.98;41.51;101054.34;5157638;56;1140478;-79
2021/03/09 16:42:56;;;;;;;362.97;128.33;;;;;;;5.58;42.16;101070.33;5159189;56;1140892;-79
2021/03/09 16:48:03;;;;;;;304.47;100.23;;;;;;;5.24;43.19;101078.48;5154544;56;1142693;-76
2021/03/09 16:53:09;;;;;;;264.23;86.08;;;;;;;4.97;44.03;101077.59;5150592;56;1142663;-77
2021/03/09 16:58:14;;;;;;;271.60;82.70;;;;;;;4.76;44.69;101083.33;5159895;56;1140553;-77
2021/03/09 17:03:20;;;;;;;172.00;61.37;;;;;;;4.59;45.33;101091.47;5160154;56;1145105;-77
2021/03/09 17:08:26;;;;;;;295.75;68.07;;;;;;;4.38;45.71;101091.56;5159737;56;1140961;-80
2021/03/09 17:13:31;;;;;;;205.65;52.55;;;;;;;4.09;46.09;101096.72;5158944;56;1140819;-78
2021/03/09 17:18:37;;;;;;;219.20;51.83;;;;;;;3.89;46.75;101098.39;5154824;56;1140963;-79
2021/03/09 17:23:43;;;;;;;100.50;29.53;;;;;;;3.76;47.35;101101.56;5160214;56;1140840;-83
2021/03/09 17:28:49;;;;;;;96.23;33.73;;;;;;;3.64;47.89;101105.98;5160431;56;1140753;-79
2021/03/09 17:33:54;;;;;;;88.27;31.40;;;;;;;3.46;48.08;101106.24;5159573;56;1138572;-79
2021/03/09 17:39:00;;;;;;;54.53;19.87;;;;;;;3.27;48.43;101112.63;5160641;56;1138491;-81
2021/03/09 17:44:06;;;;;;;95.37;31.97;;;;;;;3.22;48.91;101116.31;5158014;56;1138403;-82
2021/03/09 17:49:12;;;;;;;159.97;51.30;;;;;;;3.15;49.14;101119.17;5151460;56;1138367;-79
2021/03/09 17:54:17;;;;;;;373.63;144.40;;;;;;;3.07;49.33;101117.73;5151304;56;1140683;-83
2021/03/09 17:59:26;;;;;;;334.10;122.47;;;;;;;2.98;49.08;101111.56;5151536;56;1142848;-80
2021/03/09 18:04:32;;;;;;;188.97;69.58;;;;;;;2.87;48.59;101122.86;5145914;56;1142644;-81
2021/03/09 18:09:38;;;;;;;312.03;113.23;;;;;;;2.74;48.79;101122.00;5151232;56;1140578;-82
2021/03/09 18:14:45;;;;;;;282.63;99.33;;;;;;;2.63;49.22;101122.81;5150906;56;1142573;-81
2021/03/09 18:19:55;;;;;;;151.03;57.83;;;;;;;2.52;49.72;101122.80;5150642;56;1140664;-78
2021/03/09 18:25:00;;;;;;;91.28;37.78;;;;;;;2.29;49.77;101129.64;5150842;56;1140597;-80
2021/03/09 18:30:08;;;;;;;99.77;39.07;;;;;;;1.96;50.57;101130.33;5150583;56;1138327;-81
2021/03/09 18:35:14;;;;;;;505.77;170.97;;;;;;;1.84;51.19;101132.45;5150507;56;1138461;-83
2021/03/09 18:40:20;;;;;;;646.10;279.52;;;;;;;1.82;51.67;101143.41;5150425;56;1143185;-83
2021/03/09 18:45:26;;;;;;;240.80;106.52;;;;;;;1.76;51.77;101137.48;5152855;56;1142634;-79
2021/03/09 18:50:31;;;;;;;113.17;43.05;;;;;;;1.73;52.16;101138.87;5159876;56;1142648;-78
2021/03/09 18:55:37;;;;;;;93.13;37.27;;;;;;;1.68;52.82;101135.55;5160292;56;1141211;-81
2021/03/09 19:00:43;;;;;;;108.90;42.77;;;;;;;1.66;52.95;101133.46;5160159;56;1138726;-81
2021/03/09 19:05:49;;;;;;;61.70;26.43;;;;;;;1.61;53.41;101134.49;5159974;56;1140744;-79
2021/03/09 19:10:54;;;;;;;55.07;27.23;;;;;;;1.53;53.97;101134.71;5160220;56;1138638;-79
2021/03/09 19:16:00;;;;;;;89.97;36.80;;;;;;;1.38;54.22;101125.61;5160259;56;1138534;-82
2021/03/09 19:21:09;;;;;;;143.07;51.23;;;;;;;1.32;54.35;101130.17;5153397;56;1138674;-82
2021/03/09 19:26:14;;;;;;;147.43;60.73;;;;;;;1.31;54.43;101136.27;5132876;56;1140860;-78
2021/03/09 19:31:19;;;;;;;118.03;44.47;;;;;;;1.26;54.62;101132.49;5145758;56;1259874;-78
2021/03/09 19:36:25;;;;;;;155.67;55.73;;;;;;;1.30;54.93;101137.17;5146354;56;1140612;-79
2021/03/09 19:41:30;;;;;;;230.98;80.87;;;;;;;1.36;55.23;101143.52;5155748;56;1141020;-78
2021/03/09 19:46:37;;;;;;;86.90;32.50;;;;;;;1.37;55.18;101136.96;5152982;56;1141405;-80
2021/03/09 19:51:44;;;;;;;113.97;41.03;;;;;;;1.31;55.10;101144.95;5134883;56;1138501;-77
2021/03/09 19:56:49;;;;;;;79.10;34.27;;;;;;;1.15;55.39;101147.59;5143730;56;1140491;-80
2021/03/09 20:01:55;;;;;;;81.87;32.33;;;;;;;1.08;55.45;101143.44;5119886;56;1138419;-80
2021/03/09 20:07:01;;;;;;;65.25;24.12;;;;;;;0.97;55.55;101150.27;5130916;56;1138330;-80
2021/03/09 20:12:07;;;;;;;58.40;21.13;;;;;;;0.84;55.90;101155.41;5137709;56;1138487;-78
2021/03/09 20:17:14;;;;;;;65.23;22.97;;;;;;;0.77;56.18;101153.86;5122206;56;1139043;-80
2021/03/09 20:22:20;;;;;;;64.23;26.23;;;;;;;0.75;56.70;101153.52;5136425;56;1139059;-79
2021/03/09 20:27:25;;;;;;;50.33;17.57;;;;;;;0.81;57.04;101152.03;5140788;56;1148134;-80
2021/03/09 20:32:31;;;;;;;56.73;22.85;;;;;;;0.78;57.10;101145.16;4969986;57;1139001;-79
2021/03/09 20:37:39;;;;;;;51.50;20.15;;;;;;;0.75;57.13;101148.31;5138436;56;1138833;-82
2021/03/09 20:42:44;;;;;;;56.40;23.73;;;;;;;0.73;57.21;101156.16;5093770;56;1138597;-80
2021/03/09 20:47:50;;;;;;;51.87;21.73;;;;;;;0.75;57.44;101153.52;5109124;56;1138696;-81
2021/03/09 20:52:56;;;;;;;77.33;28.60;;;;;;;0.72;57.46;101155.75;5129764;56;1138600;-82
2021/03/09 20:58:02;;;;;;;93.87;42.27;;;;;;;0.61;57.63;101156.02;5124016;56;1138976;-79
2021/03/09 21:03:07;;;;;;;99.87;43.27;;;;;;;0.52;57.82;101148.46;5125048;56;1138495;-78
2021/03/09 21:08:13;;;;;;;300.47;106.43;;;;;;;0.45;57.94;101146.94;5115095;56;1138764;-79
2021/03/09 21:13:18;;;;;;;318.27;102.33;;;;;;;0.40;58.06;101150.53;5131794;56;1142809;-78
2021/03/09 21:18:24;;;;;;;328.33;102.17;;;;;;;0.37;58.06;101148.01;5126394;56;1142669;-80
2021/03/09 21:23:32;;;;;;;204.33;69.27;;;;;;;0.40;58.21;101138.37;5136177;56;1142606;-79
2021/03/09 21:28:38;;;;;;;187.65;65.30;;;;;;;0.38;58.22;101140.16;5160561;56;1140518;-79
2021/03/09 21:33:44;;;;;;;200.10;68.07;;;;;;;0.33;58.21;101138.97;5160493;56;1140802;-79
2021/03/09 21:38:49;;;;;;;210.32;67.65;;;;;;;0.32;58.42;101129.91;5160447;56;1140533;-79
2021/03/09 21:43:57;;;;;;;212.03;70.53;;;;;;;0.28;58.01;101132.20;5154346;56;1140508;-79
2021/03/09 21:49:03;;;;;;;212.60;72.73;;;;;;;0.10;58.05;101126.16;5159617;56;1140637;-79
2021/03/09 21:54:08;;;;;;;220.93;74.70;;;;;;;0.09;58.56;101135.70;5114214;56;1141336;-80
2021/03/09 21:59:15;;;;;;;257.33;88.07;;;;;;;0.13;58.71;101124.78;5122618;56;1141081;-80
2021/03/09 22:04:20;;;;;;;296.77;99.03;;;;;;;-0.05;58.11;101122.19;5118697;56;1140636;-79
2021/03/09 22:09:26;;;;;;;316.57;105.77;;;;;;;-0.25;58.41;101126.55;5076776;56;1143366;-79
2021/03/09 22:14:31;;;;;;;313.12;108.57;;;;;;;-0.25;58.95;101128.30;5076469;56;1145090;-80
2021/03/09 22:19:37;;;;;;;320.87;110.77;;;;;;;-0.24;59.14;101129.56;5076351;56;1145465;-80
2021/03/09 22:24:43;;;;;;;307.30;107.47;;;;;;;-0.22;59.27;101120.43;5076342;56;1145380;-79
2021/03/09 22:29:49;;;;;;;298.23;99.57;;;;;;;-0.22;59.23;101126.93;5075984;56;1145336;-79
2021/03/09 22:34:55;;;;;;;292.33;96.53;;;;;;;-0.24;59.37;101128.70;5076158;56;1143149;-80
2021/03/09 22:40:00;;;;;;;256.30;85.57;;;;;;;-0.46;58.69;101125.77;5076145;56;1143115;-78
2021/03/09 22:45:07;;;;;;;259.13;88.87;;;;;;;-0.52;59.38;101129.79;5076602;56;1143026;-80